createdAt,value
2017-07-14T00:02:00.668Z,2.00
2017-07-14T00:04:28.533Z,2.00
2017-07-14T00:06:56.306Z,1.53
2017-07-14T00:09:25.339Z,2.20
2017-07-14T00:11:53.343Z,2.07
2017-07-14T00:14:21.073Z,2.00
2017-07-14T00:16:48.847Z,1.80
2017-07-14T00:19:16.634Z,1.90
2017-07-14T00:21:44.382Z,1.67
2017-07-14T00:24:12.132Z,2.17
2017-07-14T00:26:39.911Z,1.60
2017-07-14T00:29:07.634Z,2.23
2017-07-14T00:31:35.435Z,1.60
2017-07-14T00:34:03.172Z,1.70
2017-07-14T00:36:30.948Z,2.17
2017-07-14T00:38:58.731Z,2.37
2017-07-14T00:41:26.626Z,1.83
2017-07-14T00:43:54.313Z,1.93
2017-07-14T00:46:22.024Z,1.80
2017-07-14T00:48:49.824Z,1.90
2017-07-14T00:51:17.518Z,1.77
2017-07-14T00:53:45.221Z,1.57
2017-07-14T00:56:12.958Z,1.43
2017-07-14T00:58:40.661Z,2.07
2017-07-14T01:01:08.376Z,1.83
2017-07-14T01:03:36.148Z,2.07
2017-07-14T01:06:03.882Z,1.40
2017-07-14T01:08:31.575Z,2.10
2017-07-14T01:10:59.352Z,2.40
2017-07-14T01:13:27.077Z,1.87
2017-07-14T01:15:54.862Z,2.67
2017-07-14T01:18:22.684Z,2.00
2017-07-14T01:20:50.492Z,2.30
2017-07-14T01:23:18.213Z,1.70
2017-07-14T01:25:45.911Z,2.33
2017-07-14T01:28:13.683Z,2.00
2017-07-14T01:30:41.386Z,2.30
2017-07-14T01:33:09.159Z,2.33
2017-07-14T01:35:36.958Z,2.00
2017-07-14T01:38:04.658Z,2.10
2017-07-14T01:40:32.383Z,1.97
2017-07-14T01:43:00.208Z,1.50
2017-07-14T01:45:27.914Z,1.87
2017-07-14T01:47:56.100Z,1.67
2017-07-14T01:50:23.913Z,2.30
2017-07-14T01:52:51.678Z,2.47
2017-07-14T01:55:19.417Z,2.20
2017-07-14T01:57:47.351Z,1.90
2017-07-14T02:00:15.215Z,1.60
2017-07-14T02:02:43.173Z,1.63
2017-07-14T02:05:11.072Z,1.90
2017-07-14T02:07:38.840Z,1.90
2017-07-14T02:10:06.746Z,2.10
2017-07-14T02:12:34.536Z,2.60
2017-07-14T02:15:02.383Z,2.23
2017-07-14T02:17:30.157Z,1.73
2017-07-14T02:19:57.993Z,3.80
2017-07-14T02:22:25.803Z,2.03
2017-07-14T02:24:53.650Z,2.67
2017-07-14T02:27:21.380Z,2.23
2017-07-14T02:29:49.151Z,2.07
2017-07-14T02:32:18.013Z,2.00
2017-07-14T02:34:45.825Z,2.40
2017-07-14T02:37:13.597Z,2.90
2017-07-14T02:39:41.378Z,3.03
2017-07-14T02:42:09.215Z,3.83
2017-07-14T02:44:37.093Z,3.87
2017-07-14T02:47:04.985Z,3.40
2017-07-14T02:49:32.775Z,4.03
2017-07-14T02:52:00.548Z,3.57
2017-07-14T02:54:29.961Z,2.63
2017-07-14T02:56:57.741Z,3.10
2017-07-14T02:59:26.895Z,3.30
2017-07-14T03:01:54.940Z,3.07
2017-07-14T03:04:22.669Z,2.87
2017-07-14T03:06:50.434Z,3.43
2017-07-14T03:09:18.219Z,2.80
2017-07-14T03:11:45.994Z,2.70
2017-07-14T03:14:13.743Z,3.47
2017-07-14T03:16:41.594Z,2.37
2017-07-14T03:19:09.355Z,3.10
2017-07-14T03:21:37.155Z,2.60
2017-07-14T03:24:05.001Z,2.87
2017-07-14T03:26:32.791Z,3.10
2017-07-14T03:29:00.586Z,2.37
2017-07-14T03:31:28.354Z,2.27
2017-07-14T03:33:56.114Z,2.30
2017-07-14T03:36:23.820Z,1.80
2017-07-14T03:38:51.605Z,2.80
2017-07-14T03:41:19.326Z,2.13
2017-07-14T03:43:47.274Z,2.67
2017-07-14T03:46:15.017Z,2.00
2017-07-14T03:48:42.794Z,3.23
2017-07-14T03:51:10.523Z,2.87
2017-07-14T03:53:38.347Z,2.63
2017-07-14T03:56:06.117Z,2.80
2017-07-14T03:58:33.877Z,3.20
2017-07-14T04:01:01.660Z,2.93
2017-07-14T04:03:29.411Z,3.70
2017-07-14T04:05:57.190Z,2.60
2017-07-14T04:08:24.951Z,3.67
2017-07-14T04:10:52.731Z,4.03
2017-07-14T04:13:20.470Z,3.97
2017-07-14T04:15:48.270Z,3.30
2017-07-14T04:18:16.090Z,4.40
2017-07-14T04:20:43.814Z,2.77
2017-07-14T04:23:11.593Z,3.40
2017-07-14T04:25:39.369Z,3.47
2017-07-14T04:28:07.065Z,3.37
2017-07-14T04:30:34.844Z,4.50
2017-07-14T04:33:02.547Z,4.90
2017-07-14T04:35:30.346Z,4.20
2017-07-14T04:37:58.050Z,4.07
2017-07-14T04:40:25.840Z,3.40
2017-07-14T04:42:53.540Z,3.57
2017-07-14T04:45:21.341Z,3.30
2017-07-14T04:47:49.074Z,3.90
2017-07-14T04:50:16.823Z,4.13
2017-07-14T04:52:44.608Z,4.70
2017-07-14T04:55:12.317Z,3.83
2017-07-14T04:57:40.011Z,4.30
2017-07-14T05:00:07.731Z,4.47
2017-07-14T05:02:35.521Z,4.70
2017-07-14T05:05:03.314Z,4.40
2017-07-14T05:07:31.095Z,4.43
2017-07-14T05:09:58.864Z,4.70
2017-07-14T05:12:26.553Z,4.20
2017-07-14T05:14:54.437Z,4.17
2017-07-14T05:17:22.248Z,3.97
2017-07-14T05:19:50.010Z,3.80
2017-07-14T05:22:17.800Z,3.60
2017-07-14T05:24:45.543Z,3.90
2017-07-14T05:27:13.310Z,3.90
2017-07-14T05:29:41.086Z,4.17
2017-07-14T05:32:09.574Z,4.67
2017-07-14T05:34:37.351Z,4.30
2017-07-14T05:37:05.105Z,5.40
2017-07-14T05:39:32.798Z,3.20
2017-07-14T05:42:00.518Z,2.97
2017-07-14T05:44:28.272Z,3.10
2017-07-14T05:46:56.054Z,3.13
2017-07-14T05:49:23.808Z,4.00
2017-07-14T05:51:51.565Z,4.07
2017-07-14T05:54:19.330Z,4.40
2017-07-14T05:56:47.035Z,4.83
2017-07-14T05:59:14.819Z,3.83
2017-07-14T06:01:42.515Z,4.07
2017-07-14T06:04:10.295Z,3.80
2017-07-14T06:06:38.086Z,4.20
2017-07-14T06:09:05.799Z,4.53
2017-07-14T06:11:33.552Z,4.37
2017-07-14T06:14:01.254Z,3.70
2017-07-14T06:16:29.321Z,3.13
2017-07-14T06:18:57.112Z,3.10
2017-07-14T06:21:24.975Z,3.20
2017-07-14T06:23:52.738Z,2.70
2017-07-14T06:26:20.572Z,3.40
2017-07-14T06:28:48.372Z,3.17
2017-07-14T06:31:16.156Z,3.83
2017-07-14T06:33:44.054Z,2.90
2017-07-14T06:36:11.913Z,3.07
2017-07-14T06:38:39.763Z,3.60
2017-07-14T06:41:07.602Z,2.90
2017-07-14T06:43:35.415Z,2.80
2017-07-14T06:46:03.132Z,3.07
2017-07-14T06:48:30.918Z,2.83
2017-07-14T06:50:58.699Z,2.87
2017-07-14T06:53:26.451Z,3.03
2017-07-14T06:55:54.254Z,2.97
2017-07-14T06:58:21.947Z,2.70
2017-07-14T07:00:50.809Z,2.93
2017-07-14T07:03:18.615Z,3.40
2017-07-14T07:05:46.340Z,3.20
2017-07-14T07:08:14.176Z,3.33
2017-07-14T07:10:41.972Z,2.67
2017-07-14T07:13:09.700Z,2.80
2017-07-14T07:15:37.583Z,2.53
2017-07-14T07:18:05.357Z,3.43
2017-07-14T07:20:33.081Z,2.97
2017-07-14T07:23:00.822Z,2.53
2017-07-14T07:25:28.696Z,2.90
2017-07-14T07:27:56.658Z,2.53
2017-07-14T07:30:24.355Z,2.80
2017-07-14T07:32:52.142Z,2.70
2017-07-14T07:35:19.853Z,2.57
2017-07-14T07:37:47.622Z,2.20
2017-07-14T07:40:15.343Z,2.10
2017-07-14T07:42:43.161Z,2.27
2017-07-14T07:45:11.037Z,2.93
2017-07-14T07:47:44.579Z,2.50
2017-07-14T07:50:13.521Z,2.70
2017-07-14T07:52:41.301Z,2.50
2017-07-14T07:55:09.102Z,2.30
2017-07-14T07:57:36.891Z,2.83
2017-07-14T08:00:04.822Z,2.50
2017-07-14T08:02:38.022Z,2.30
2017-07-14T08:05:05.827Z,2.20
2017-07-14T08:07:33.577Z,3.07
2017-07-14T08:10:01.324Z,2.60
2017-07-14T08:12:29.121Z,3.13
2017-07-14T08:14:56.839Z,2.67
2017-07-14T08:17:24.582Z,2.30
2017-07-14T08:19:52.279Z,2.00
2017-07-14T08:22:20.077Z,1.77
2017-07-14T08:24:47.826Z,2.30
2017-07-14T08:27:15.716Z,2.60
2017-07-14T08:29:43.486Z,2.07
2017-07-14T08:32:11.252Z,2.93
2017-07-14T08:34:38.956Z,2.40
2017-07-14T08:37:06.682Z,3.53
2017-07-14T08:39:34.518Z,2.60
2017-07-14T08:42:02.306Z,3.90
2017-07-14T08:44:30.019Z,6.57
2017-07-14T08:46:57.784Z,5.10
2017-07-14T08:49:25.579Z,3.40
2017-07-14T08:51:53.363Z,3.00
2017-07-14T08:54:21.136Z,2.47
2017-07-14T08:56:48.884Z,2.30
2017-07-14T08:59:16.738Z,2.13
2017-07-14T09:01:44.440Z,2.67
2017-07-14T09:04:12.163Z,6.47
2017-07-14T09:06:40.094Z,5.80
2017-07-14T09:09:07.810Z,2.73
2017-07-14T09:11:35.639Z,2.67
2017-07-14T09:14:03.418Z,2.23
2017-07-14T09:16:31.212Z,2.33
2017-07-14T09:18:58.947Z,2.03
2017-07-14T09:21:26.647Z,2.90
2017-07-14T09:23:54.437Z,2.50
2017-07-14T09:26:22.847Z,2.33
2017-07-14T09:28:50.620Z,2.17
2017-07-14T09:31:18.401Z,2.97
2017-07-14T09:33:46.207Z,1.80
2017-07-14T09:36:13.912Z,2.37
2017-07-14T09:38:41.657Z,2.20
2017-07-14T09:41:09.424Z,2.47
2017-07-14T09:43:37.131Z,2.77
2017-07-14T09:46:04.875Z,2.10
2017-07-14T09:48:32.634Z,3.00
2017-07-14T09:51:00.364Z,2.40
2017-07-14T09:53:28.126Z,2.50
2017-07-14T09:55:55.843Z,2.33
2017-07-14T09:58:23.695Z,2.20
2017-07-14T10:00:51.434Z,2.10
2017-07-14T10:03:19.129Z,2.30
2017-07-14T10:05:46.907Z,3.27
2017-07-14T10:08:14.616Z,2.17
2017-07-14T10:10:42.374Z,5.93
2017-07-14T10:13:10.134Z,5.43
2017-07-14T10:15:37.978Z,5.10
2017-07-14T10:18:05.745Z,3.37
2017-07-14T10:20:34.459Z,3.03
2017-07-14T10:23:03.003Z,2.90
2017-07-14T10:25:30.812Z,2.67
2017-07-14T10:27:58.616Z,3.20
2017-07-14T10:30:26.373Z,3.40
2017-07-14T10:32:54.092Z,3.07
2017-07-14T10:35:21.892Z,2.60
2017-07-14T10:37:49.657Z,3.17
2017-07-14T10:40:17.406Z,2.60
2017-07-14T10:42:45.220Z,2.97
2017-07-14T10:45:13.326Z,3.33
2017-07-14T10:47:41.425Z,3.90
2017-07-14T10:50:09.324Z,3.30
2017-07-14T10:52:37.150Z,3.10
2017-07-14T10:55:05.268Z,3.00
2017-07-14T10:57:33.774Z,3.87
2017-07-14T11:00:03.928Z,3.60
2017-07-14T11:02:31.975Z,3.30
2017-07-14T11:04:59.819Z,3.10
2017-07-14T11:07:28.391Z,3.50
2017-07-14T11:09:56.159Z,3.33
2017-07-14T11:12:23.877Z,3.00
2017-07-14T11:14:51.598Z,3.03
2017-07-14T11:17:19.472Z,2.40
2017-07-14T11:19:47.296Z,3.53
2017-07-14T11:22:15.019Z,3.27
2017-07-14T11:24:42.810Z,3.10
2017-07-14T11:27:10.642Z,3.23
2017-07-14T11:29:38.333Z,3.20
2017-07-14T11:32:06.053Z,3.50
2017-07-14T11:34:33.916Z,2.90
2017-07-14T11:37:01.653Z,3.53
2017-07-14T11:39:29.478Z,3.20
2017-07-14T11:41:57.196Z,3.00
2017-07-14T11:44:24.889Z,3.87
2017-07-14T11:46:52.638Z,3.10
2017-07-14T11:49:20.369Z,3.93
2017-07-14T11:51:48.169Z,2.83
2017-07-14T11:54:15.933Z,3.13
2017-07-14T11:56:43.772Z,3.77
2017-07-14T11:59:11.534Z,3.67
2017-07-14T12:01:40.277Z,3.23
2017-07-14T12:04:08.058Z,3.17
2017-07-14T12:06:35.815Z,2.40
2017-07-14T12:09:03.762Z,2.77
2017-07-14T12:11:32.145Z,2.53
2017-07-14T12:13:59.944Z,3.07
2017-07-14T12:16:27.658Z,3.70
2017-07-14T12:18:55.462Z,3.90
2017-07-14T12:21:23.231Z,3.50
2017-07-14T12:23:50.990Z,3.20
2017-07-14T12:26:18.814Z,3.30
2017-07-14T12:28:47.199Z,3.20
2017-07-14T12:31:15.047Z,4.17
2017-07-14T12:33:42.831Z,4.27
2017-07-14T12:36:10.585Z,3.80
2017-07-14T12:38:38.335Z,3.37
2017-07-14T12:41:06.021Z,3.37
2017-07-14T12:43:33.831Z,2.60
2017-07-14T12:46:01.564Z,3.60
2017-07-14T12:48:29.338Z,2.83
2017-07-14T12:50:57.260Z,2.77
2017-07-14T12:53:25.014Z,4.20
2017-07-14T12:55:52.737Z,3.63
2017-07-14T12:58:20.506Z,3.37
2017-07-14T13:00:48.334Z,2.80
2017-07-14T13:03:16.043Z,3.10
2017-07-14T13:05:43.824Z,3.10
2017-07-14T13:08:11.521Z,3.67
2017-07-14T13:10:39.288Z,2.37
2017-07-14T13:13:07.010Z,3.00
2017-07-14T13:15:34.790Z,3.37
2017-07-14T13:18:02.496Z,2.47
2017-07-14T13:20:30.203Z,3.03
2017-07-14T13:22:57.937Z,2.90
2017-07-14T13:25:25.677Z,2.50
2017-07-14T13:27:53.376Z,2.90
2017-07-14T13:30:21.057Z,3.00
2017-07-14T13:32:48.955Z,2.20
2017-07-14T13:35:16.684Z,2.37
2017-07-14T13:37:44.700Z,2.67
2017-07-14T13:40:12.395Z,2.73
2017-07-14T13:42:40.463Z,2.83
2017-07-14T13:45:08.291Z,2.93
2017-07-14T13:47:36.991Z,2.50
2017-07-14T13:50:04.892Z,3.10
2017-07-14T13:52:32.667Z,2.90
2017-07-14T13:55:00.378Z,2.73
2017-07-14T13:57:28.146Z,2.53
2017-07-14T13:59:55.867Z,2.03
2017-07-14T14:02:24.411Z,2.40
2017-07-14T14:04:52.200Z,2.23
2017-07-14T14:07:20.037Z,2.50
2017-07-14T14:09:47.772Z,2.20
2017-07-14T14:12:15.543Z,2.10
2017-07-14T14:14:43.352Z,1.67
2017-07-14T14:17:11.178Z,2.20
2017-07-14T14:19:39.001Z,2.30
2017-07-14T14:22:06.715Z,2.50
2017-07-14T14:24:34.479Z,2.77
2017-07-14T14:27:02.248Z,2.47
2017-07-14T14:29:29.969Z,2.50
2017-07-14T14:31:57.730Z,2.20
2017-07-14T14:34:25.516Z,2.20
2017-07-14T14:36:53.315Z,1.80
2017-07-14T14:39:21.076Z,2.30
2017-07-14T14:41:49.764Z,2.00
2017-07-14T14:44:17.456Z,1.80
2017-07-14T14:46:45.342Z,1.73
2017-07-14T14:49:13.254Z,2.40
2017-07-14T14:51:41.028Z,2.53
2017-07-14T14:54:09.552Z,1.77
2017-07-14T14:56:37.341Z,2.33
2017-07-14T14:59:05.069Z,1.97
2017-07-14T15:01:34.027Z,1.70
2017-07-14T15:04:02.599Z,1.87
2017-07-14T15:06:30.383Z,1.97
2017-07-14T15:08:58.341Z,2.30
2017-07-14T15:11:26.335Z,2.00
2017-07-14T15:13:54.077Z,2.00
2017-07-14T15:16:22.863Z,2.33
2017-07-14T15:18:50.674Z,2.17
2017-07-14T15:21:18.387Z,2.13
2017-07-14T15:23:46.236Z,1.63
2017-07-14T15:26:13.998Z,2.47
2017-07-14T15:28:41.711Z,1.93
2017-07-14T15:31:09.501Z,2.27
2017-07-14T15:33:37.352Z,2.20
2017-07-14T15:36:05.199Z,2.40
2017-07-14T15:38:32.992Z,2.27
2017-07-14T15:41:00.780Z,3.00
2017-07-14T15:43:28.510Z,2.07
2017-07-14T15:45:56.304Z,2.33
2017-07-14T15:48:24.090Z,1.90
2017-07-14T15:50:51.879Z,2.27
2017-07-14T15:53:19.686Z,2.30
2017-07-14T15:55:47.723Z,1.93
2017-07-14T15:58:15.453Z,2.17
2017-07-14T16:00:43.270Z,1.50
2017-07-14T16:03:11.094Z,1.80
2017-07-14T16:05:38.865Z,1.20
2017-07-14T16:08:06.605Z,1.20
2017-07-14T16:10:34.401Z,1.60
2017-07-14T16:13:02.183Z,3.10
2017-07-14T16:15:30.007Z,2.27
2017-07-14T16:17:57.810Z,2.00
2017-07-14T16:20:25.573Z,2.57
2017-07-14T16:22:53.361Z,2.30
2017-07-14T16:25:21.136Z,2.60
2017-07-14T16:27:48.942Z,2.37
2017-07-14T16:30:16.703Z,1.77
2017-07-14T16:32:44.527Z,1.87
2017-07-14T16:35:12.236Z,2.10
2017-07-14T16:37:40.033Z,2.07
2017-07-14T16:40:07.775Z,1.57
2017-07-14T16:42:35.783Z,1.77
2017-07-14T16:45:03.568Z,1.87
2017-07-14T16:47:31.345Z,2.63
2017-07-14T16:49:59.257Z,1.77
2017-07-14T16:52:27.038Z,1.73
2017-07-14T16:54:54.993Z,2.20
2017-07-14T16:57:22.738Z,2.43
2017-07-14T16:59:51.248Z,2.03
2017-07-14T17:02:19.008Z,2.43
2017-07-14T17:04:46.745Z,2.23
2017-07-14T17:07:14.534Z,2.40
2017-07-14T17:09:42.240Z,2.77
2017-07-14T17:12:10.053Z,2.40
2017-07-14T17:14:38.879Z,3.27
2017-07-14T17:17:06.763Z,2.40
2017-07-14T17:19:34.698Z,2.50
2017-07-14T17:22:02.453Z,2.80
2017-07-14T17:24:30.199Z,2.00
2017-07-14T17:26:58.000Z,3.07
2017-07-14T17:29:25.767Z,2.67
2017-07-14T17:31:53.519Z,1.83
2017-07-14T17:34:21.260Z,2.70
2017-07-14T17:36:49.049Z,2.00
2017-07-14T17:39:16.837Z,2.10
2017-07-14T17:41:44.532Z,2.87
2017-07-14T17:44:12.308Z,1.80
2017-07-14T17:46:40.130Z,1.93
2017-07-14T17:49:07.941Z,1.90
2017-07-14T17:51:35.860Z,2.33
2017-07-14T17:54:04.433Z,2.27
2017-07-14T17:56:32.233Z,2.40
2017-07-14T17:59:00.007Z,2.70
2017-07-14T18:01:29.665Z,2.73
2017-07-14T18:03:58.976Z,2.13
2017-07-14T18:06:26.830Z,2.47
2017-07-14T18:08:54.573Z,1.93
2017-07-14T18:11:22.537Z,2.30
2017-07-14T18:13:50.512Z,2.30
2017-07-14T18:16:18.390Z,2.10
2017-07-14T18:18:46.218Z,2.10
2017-07-14T18:21:14.673Z,2.47
2017-07-14T18:23:42.420Z,3.07
2017-07-14T18:26:10.590Z,2.93
2017-07-14T18:28:38.557Z,3.33
2017-07-14T18:33:40.347Z,2.63
2017-07-14T18:36:08.110Z,3.20
2017-07-14T18:38:35.866Z,2.80
2017-07-14T18:41:03.672Z,2.93
2017-07-14T18:43:31.792Z,2.37
2017-07-14T18:45:59.625Z,2.27
2017-07-14T18:48:27.422Z,2.73
2017-07-14T18:50:55.227Z,2.03
2017-07-14T18:53:23.107Z,2.60
2017-07-14T18:55:50.867Z,2.20
2017-07-14T18:58:18.675Z,1.90
2017-07-14T19:00:46.391Z,1.97
2017-07-14T19:03:14.256Z,2.03
2017-07-14T19:05:42.139Z,1.97
2017-07-14T19:08:10.551Z,2.57
2017-07-14T19:10:38.653Z,2.37
2017-07-14T19:13:06.671Z,1.80
2017-07-14T19:15:35.343Z,2.30
2017-07-14T19:18:03.204Z,2.90
2017-07-14T19:20:31.016Z,1.80
2017-07-14T19:22:58.927Z,1.97
2017-07-14T19:25:26.864Z,1.73
2017-07-14T19:27:54.704Z,1.70
2017-07-14T19:30:22.680Z,2.33
2017-07-14T19:32:50.455Z,2.00
2017-07-14T19:35:18.354Z,1.80
2017-07-14T19:37:46.204Z,1.80
2017-07-14T19:40:14.061Z,2.60
2017-07-14T19:42:42.581Z,2.00
2017-07-14T19:45:10.787Z,2.33
2017-07-14T19:47:38.710Z,2.17
2017-07-14T19:50:06.472Z,2.20
2017-07-14T19:52:34.241Z,2.50
2017-07-14T19:55:02.130Z,1.87
2017-07-14T19:57:30.038Z,2.07
2017-07-14T19:59:57.841Z,2.03
2017-07-14T20:02:25.639Z,1.83
2017-07-14T20:04:53.535Z,1.90
2017-07-14T20:07:21.384Z,2.00
2017-07-14T20:09:49.225Z,2.60
2017-07-14T20:12:16.992Z,2.13
2017-07-14T20:14:44.864Z,2.10
2017-07-14T20:17:12.630Z,2.03
2017-07-14T20:19:40.411Z,2.00
2017-07-14T20:22:08.190Z,2.70
2017-07-14T20:24:35.919Z,2.50
2017-07-14T20:53:10.440Z,2.63
2017-07-14T20:55:38.234Z,1.77
2017-07-14T20:58:06.536Z,2.00
2017-07-14T21:00:34.242Z,2.40
2017-07-14T21:03:02.064Z,2.17
2017-07-14T21:05:29.832Z,1.93
2017-07-14T21:07:57.604Z,1.77
2017-07-14T21:10:25.330Z,2.57
2017-07-14T21:12:53.119Z,1.87
2017-07-14T21:15:21.050Z,2.83
2017-07-14T21:17:48.929Z,1.90
2017-07-14T21:20:16.771Z,2.23
2017-07-14T21:22:44.547Z,2.53
2017-07-14T21:25:12.340Z,2.03
2017-07-14T21:27:40.114Z,1.90
2017-07-14T21:30:07.891Z,2.20
2017-07-14T21:32:35.622Z,1.80
2017-07-14T21:35:03.398Z,2.97
2017-07-14T21:37:31.188Z,2.80
2017-07-14T21:39:58.955Z,2.67
2017-07-14T21:42:26.740Z,2.30
2017-07-14T21:44:54.463Z,2.33
2017-07-14T21:47:22.536Z,2.40
2017-07-14T21:49:50.278Z,2.57
2017-07-14T21:52:18.015Z,2.40
2017-07-14T21:54:45.769Z,2.23
2017-07-14T21:57:13.509Z,1.67
2017-07-14T21:59:41.254Z,1.80
2017-07-14T22:02:09.147Z,1.80
2017-07-14T22:04:36.861Z,1.83
2017-07-14T22:07:04.681Z,1.90
2017-07-14T22:09:32.522Z,2.67
2017-07-14T22:12:00.237Z,2.10
2017-07-14T22:14:27.945Z,1.73
2017-07-14T22:16:55.737Z,2.20
2017-07-14T22:19:23.450Z,2.30
2017-07-14T22:21:51.153Z,1.67
2017-07-14T22:24:18.937Z,2.00
2017-07-14T22:26:46.695Z,1.57
2017-07-14T22:29:14.436Z,1.53
2017-07-14T22:31:42.246Z,1.70
2017-07-14T22:34:10.009Z,1.50
2017-07-14T22:36:37.740Z,1.80
2017-07-14T22:39:05.769Z,1.27
2017-07-14T22:41:33.537Z,1.43
2017-07-14T22:44:01.227Z,1.37
2017-07-14T22:46:29.007Z,1.30
2017-07-14T22:48:56.710Z,1.07
2017-07-14T22:51:25.261Z,1.20
2017-07-14T22:53:53.027Z,1.00
2017-07-14T22:56:20.801Z,1.80
2017-07-14T22:58:48.573Z,1.30
2017-07-14T23:01:16.330Z,1.10
2017-07-14T23:03:44.138Z,1.50
2017-07-14T23:06:11.871Z,1.57
2017-07-14T23:08:39.696Z,1.57
2017-07-14T23:11:07.485Z,1.70
2017-07-14T23:13:35.220Z,1.40
2017-07-14T23:16:02.977Z,1.27
2017-07-14T23:18:30.736Z,1.07
2017-07-14T23:20:58.513Z,1.40
2017-07-14T23:23:26.266Z,1.60
2017-07-14T23:25:54.033Z,1.10
2017-07-14T23:28:21.783Z,1.10
2017-07-14T23:30:49.759Z,0.93
2017-07-14T23:33:17.532Z,1.20
2017-07-14T23:35:45.245Z,1.70
2017-07-14T23:38:13.026Z,2.10
2017-07-14T23:40:40.805Z,1.07
2017-07-14T23:43:08.593Z,1.37
2017-07-14T23:45:37.111Z,1.33
2017-07-14T23:48:04.969Z,1.23
2017-07-14T23:50:32.731Z,1.13
2017-07-14T23:53:00.421Z,0.93
2017-07-14T23:55:28.142Z,1.00
2017-07-14T23:57:55.907Z,1.37
